Terminal Aerodrome Forecast
Issued by NWS Cleveland, OH

Home | Current Version | Previous Version | Graphics & Text | Print | Product List | Glossary On
Versions: 1 2 3 4 5 6 7 8 9 10 11 12 13 14 15 16 17 18
000
FTUS41 KCLE 221739
TAFYNG
TAF
KYNG 221739Z 2218/2318 08006KT P6SM BKN080
     FM230600 08009KT 5SM BR BKN010
     FM231200 08012G20KT 3SM -RA BR BKN008=

USA.gov is the U.S. government's official web portal to all federal, state and local government web resources and services.